Accueil
METAR-TAF:

METAR-TAF

Aéroports :

Belgaum, Inde

latitude: 15-51-33N, longitude: 74-37-03E, altitude: 758 m

Observation

Le bulletin a été fait il y a 19 heures et 54 minutes, à 07:00 UTC
Vent 3 kt de ouest
Température 33°C
Humidité 36%
Pression 1016 hPa
Visibilité 10 km ou plus
pas de nuages en-dessous de 1500 mètres et pas de cumulonimbus.

METAR: VOBM 070700Z 27003KT CAVOK 33/16 Q1016

Heure: 08:24 (02:54 UTC)

Prévision

Le bulletin a été fait il y a 9 heures et 54 minutes, à 17:00 UTC
Prévision valable du 07 à 18 UTC au 08 à 03 UTC
Vent 5 kt de ouest
Visibilité: 6000 m
Nuages épars à une hauteur de 1500 ft

TAF: VOBM 071700Z 0718/0803 27005KT 6000 SCT015

Observations et prévisions météorologiques de plus de 4000 aéroports (messages METAR et TAF).

Les stations disponibles sont représentées par des disques jaunes et rouges sur la carte.

Passer la souris dessus pour voir le nom de la station.

Cliquer dessus pour voir les observations et prévisions météorologiques.

Pour changer de carte: cliquez sur les boutons verts avec une croix noire pour zoomer, sur le bouton vert avec un tiret pour effectuer un zoom arrière, ou sur les flèches vertes pour les cartes adjacentes.


METAR-TAF: